Time;durP1;ratioP1;P1;durP2;ratioP2;P2;SDS_P1;SDS_P2;PMS_P1;PMS_P2;Temp;Humidity;BMP_temperature;BMP_pressure;BME280_temperature;BME280_humidity;BME280_pressure;Samples;Min_cycle;Max_cycle;Signal;HPM_P1;HPM_P2
2022/07/04 00:01:07;;;;;;;0.80;0.80;;;23.50;58.10;;;;;;5057893;28;20071;-73
2022/07/04 00:03:34;;;;;;;0.82;0.80;;;23.50;58.10;;;;;;5049816;28;20052;-73
2022/07/04 00:06:01;;;;;;;2.10;1.00;;;23.50;58.20;;;;;;5048870;28;20084;-73
2022/07/04 00:08:27;;;;;;;1.30;1.10;;;23.50;58.10;;;;;;5048887;28;20512;-73
2022/07/04 00:10:54;;;;;;;0.90;0.90;;;23.50;58.20;;;;;;5048552;28;20045;-73
2022/07/04 00:13:21;;;;;;;1.50;0.90;;;23.40;58.10;;;;;;5058994;28;20052;-73
2022/07/04 00:15:47;;;;;;;1.83;1.02;;;23.40;58.10;;;;;;5068494;28;20052;-73
2022/07/04 00:18:15;;;;;;;1.23;0.85;;;23.40;58.00;;;;;;5068758;28;20135;-73
2022/07/04 00:20:42;;;;;;;1.13;1.02;;;23.40;58.10;;;;;;5068576;28;20132;-73
2022/07/04 00:23:09;;;;;;;1.42;0.90;;;23.40;58.00;;;;;;5068307;28;20062;-73
2022/07/04 00:25:36;;;;;;;0.70;0.70;;;23.40;58.00;;;;;;5068624;28;20062;-73
2022/07/04 00:28:02;;;;;;;1.52;0.98;;;23.40;58.00;;;;;;5062660;28;20057;-73
2022/07/04 00:30:29;;;;;;;0.80;0.80;;;23.30;58.00;;;;;;5048299;28;20053;-73
2022/07/04 00:32:56;;;;;;;0.80;0.80;;;23.30;58.00;;;;;;5048315;28;20052;-74
2022/07/04 00:35:24;;;;;;;1.23;1.00;;;23.30;58.00;;;;;;5048019;28;20114;-73
2022/07/04 00:37:51;;;;;;;1.42;0.90;;;23.30;57.90;;;;;;5048332;28;20136;-73
2022/07/04 00:40:17;;;;;;;0.80;0.80;;;23.30;58.00;;;;;;5048418;28;20057;-73
2022/07/04 00:42:44;;;;;;;0.95;0.90;;;23.30;58.00;;;;;;5054257;28;20131;-73
2022/07/04 00:45:11;;;;;;;1.73;1.15;;;23.30;58.00;;;;;;5068173;28;20500;-73
2022/07/04 00:47:38;;;;;;;2.08;0.90;;;23.30;58.00;;;;;;5067927;28;20063;-73
2022/07/04 00:50:05;;;;;;;1.25;0.80;;;23.30;58.00;;;;;;5067840;28;20083;-73
2022/07/04 00:52:34;;;;;;;0.80;0.80;;;23.30;58.00;;;;;;5068107;28;20127;-73
2022/07/04 00:55:01;;;;;;;1.02;0.82;;;23.30;58.30;;;;;;5067436;28;20052;-73
2022/07/04 00:57:28;;;;;;;0.95;0.77;;;23.20;57.90;;;;;;5065446;28;20052;-73
2022/07/04 00:59:55;;;;;;;1.55;1.00;;;23.20;57.90;;;;;;5047892;28;20132;-73
2022/07/04 01:02:22;;;;;;;2.55;1.00;;;23.20;57.80;;;;;;5062622;28;20052;-73
2022/07/04 01:04:48;;;;;;;0.70;0.70;;;23.20;57.80;;;;;;5050972;28;20067;-73
2022/07/04 01:07:15;;;;;;;1.05;0.95;;;23.20;57.80;;;;;;5068068;28;20151;-73
2022/07/04 01:09:43;;;;;;;0.70;0.70;;;23.20;57.80;;;;;;5066878;28;20049;-73
2022/07/04 01:12:10;;;;;;;2.42;0.80;;;23.20;57.80;;;;;;5066224;28;20060;-73
2022/07/04 01:14:38;;;;;;;0.88;0.80;;;23.20;57.80;;;;;;5067511;28;20056;-73
2022/07/04 01:17:06;;;;;;;1.63;0.90;;;23.20;57.70;;;;;;5067238;28;20072;-73
2022/07/04 01:19:33;;;;;;;1.70;0.80;;;23.10;57.70;;;;;;5067702;28;20059;-73
2022/07/04 01:22:06;;;;;;;1.35;0.80;;;23.20;57.70;;;;;;5067725;28;20071;-73
2022/07/04 01:24:32;;;;;;;1.52;0.80;;;23.10;57.60;;;;;;5067606;28;20052;-73
2022/07/04 01:26:59;;;;;;;1.08;0.90;;;23.10;57.70;;;;;;5059709;28;20144;-73
2022/07/04 01:29:26;;;;;;;1.10;0.88;;;23.20;57.70;;;;;;5051879;28;20129;-73
2022/07/04 01:31:53;;;;;;;1.08;0.90;;;23.10;57.60;;;;;;5047384;28;20053;-73
2022/07/04 01:34:20;;;;;;;0.98;0.90;;;23.00;57.60;;;;;;5048413;28;20140;-73
2022/07/04 01:36:46;;;;;;;0.75;0.75;;;23.00;57.60;;;;;;5047596;28;20498;-73
2022/07/04 01:39:15;;;;;;;1.52;0.90;;;23.00;57.50;;;;;;5030969;28;20433;-73
2022/07/04 01:41:42;;;;;;;1.10;0.90;;;23.00;57.50;;;;;;5055751;28;20063;-73
2022/07/04 01:44:10;;;;;;;1.42;1.00;;;23.00;57.60;;;;;;5067291;28;20048;-73
2022/07/04 01:46:36;;;;;;;1.13;0.90;;;23.00;57.50;;;;;;5067663;28;20056;-73
2022/07/04 01:49:03;;;;;;;1.10;0.88;;;23.00;57.50;;;;;;5066962;28;20485;-73
2022/07/04 01:51:30;;;;;;;1.38;1.00;;;22.90;57.40;;;;;;5068048;28;20040;-73
2022/07/04 01:53:56;;;;;;;0.80;0.80;;;22.90;57.40;;;;;;5067269;28;20521;-73
2022/07/04 01:56:25;;;;;;;2.40;0.80;;;23.00;57.50;;;;;;5063156;28;20053;-73
2022/07/04 01:58:53;;;;;;;1.25;0.80;;;22.90;57.40;;;;;;5049957;28;20525;-73
2022/07/04 02:01:30;;;;;;;1.13;0.80;;;23.00;57.50;;;;;;5066542;28;20794;-73
2022/07/04 02:03:57;;;;;;;1.10;1.00;;;22.90;57.40;;;;;;5067273;28;20225;-73
2022/07/04 02:06:24;;;;;;;1.05;0.90;;;22.90;57.40;;;;;;5067099;28;20052;-73
2022/07/04 02:14:17;;;;;;;0.98;0.88;;;22.80;57.30;;;;;;5065670;28;20063;-73
2022/07/04 02:16:44;;;;;;;0.80;0.77;;;22.80;57.40;;;;;;5066908;28;20135;-73
2022/07/04 02:19:10;;;;;;;1.27;0.85;;;22.80;57.40;;;;;;5066766;28;20083;-73
2022/07/04 02:21:37;;;;;;;1.02;0.88;;;22.70;57.30;;;;;;5070469;28;20517;-73
2022/07/04 02:24:04;;;;;;;1.30;1.02;;;22.80;57.40;;;;;;5071647;28;20050;-73
2022/07/04 02:26:31;;;;;;;1.88;0.90;;;22.80;57.30;;;;;;5070271;28;20061;-73
2022/07/04 02:28:59;;;;;;;0.90;0.90;;;22.80;57.30;;;;;;5068143;28;20135;-73
2022/07/04 02:31:26;;;;;;;1.27;0.93;;;22.80;57.30;;;;;;5070733;28;20052;-73
2022/07/04 02:33:53;;;;;;;1.88;1.00;;;22.70;57.20;;;;;;5070579;28;20056;-73
2022/07/04 02:36:20;;;;;;;1.23;0.95;;;22.70;57.20;;;;;;5070691;28;20058;-73
2022/07/04 02:38:47;;;;;;;1.35;1.10;;;22.80;57.30;;;;;;5070680;28;20052;-73
2022/07/04 02:41:14;;;;;;;0.80;0.80;;;22.70;57.20;;;;;;5070167;28;20048;-73
2022/07/04 02:43:40;;;;;;;1.55;1.00;;;22.70;57.20;;;;;;5060454;28;20510;-73
2022/07/04 02:46:09;;;;;;;2.05;1.38;;;22.70;57.20;;;;;;5050347;28;20070;-73
2022/07/04 02:48:35;;;;;;;1.10;0.90;;;22.70;57.20;;;;;;5068421;28;20052;-73
2022/07/04 02:51:02;;;;;;;1.05;0.95;;;22.70;57.20;;;;;;5070210;28;20074;-73
2022/07/04 02:53:29;;;;;;;1.30;0.90;;;22.70;57.30;;;;;;5070010;28;20135;-73
2022/07/04 02:55:55;;;;;;;0.98;0.85;;;22.70;57.30;;;;;;5069746;28;20472;-73
2022/07/04 02:58:22;;;;;;;0.93;0.93;;;22.70;57.20;;;;;;5068985;28;20056;-73
2022/07/04 03:00:49;;;;;;;1.55;1.00;;;22.70;57.20;;;;;;5069476;28;20075;-73
2022/07/04 03:03:17;;;;;;;1.63;0.90;;;22.60;57.20;;;;;;5069099;28;20058;-73
2022/07/04 03:05:43;;;;;;;1.10;1.00;;;22.60;57.20;;;;;;5070238;28;20059;-73
2022/07/04 03:08:10;;;;;;;1.70;1.00;;;22.50;57.10;;;;;;5069638;28;20052;-73
2022/07/04 03:10:37;;;;;;;1.27;0.90;;;22.60;57.10;;;;;;5070133;28;20405;-73
2022/07/04 03:13:04;;;;;;;1.10;0.80;;;22.50;57.10;;;;;;5068379;28;20063;-73
2022/07/04 03:15:32;;;;;;;1.33;1.00;;;22.50;57.10;;;;;;5053443;28;20596;-73
2022/07/04 03:17:59;;;;;;;0.80;0.80;;;22.50;57.20;;;;;;5069731;28;20052;-73
2022/07/04 03:20:27;;;;;;;0.90;0.90;;;22.50;57.10;;;;;;5069914;28;20056;-73
2022/07/04 03:22:55;;;;;;;1.20;1.00;;;22.50;57.10;;;;;;5069340;28;20083;-73
2022/07/04 03:25:22;;;;;;;1.10;1.00;;;22.50;57.10;;;;;;5070791;28;20056;-73
2022/07/04 03:27:49;;;;;;;1.20;0.90;;;22.50;57.20;;;;;;5063075;28;20145;-73
2022/07/04 03:30:15;;;;;;;1.00;0.90;;;22.50;57.20;;;;;;5049788;28;20144;-73
2022/07/04 03:32:42;;;;;;;3.17;1.10;;;22.40;57.10;;;;;;5049046;28;20433;-73
2022/07/04 03:35:09;;;;;;;2.05;0.90;;;22.50;57.30;;;;;;5049326;28;20087;-73
2022/07/04 03:37:40;;;;;;;0.85;0.85;;;22.50;57.30;;;;;;5050894;28;20049;-72
2022/07/04 03:40:08;;;;;;;0.88;0.88;;;22.50;57.30;;;;;;5032678;28;20379;-72
2022/07/04 03:42:35;;;;;;;1.05;0.95;;;22.50;57.20;;;;;;5054659;28;20098;-73
2022/07/04 03:45:02;;;;;;;0.80;0.80;;;21.00;56.40;;;;;;5050320;28;20136;-73
2022/07/04 03:47:28;;;;;;;1.20;1.10;;;22.50;57.30;;;;;;5053646;28;20040;-72
2022/07/04 03:49:55;;;;;;;1.08;1.00;;;22.50;57.30;;;;;;5069294;28;20068;-73
2022/07/04 03:52:22;;;;;;;2.10;1.00;;;22.50;57.30;;;;;;5068985;28;20053;-73
2022/07/04 03:54:50;;;;;;;1.13;1.00;;;22.50;57.20;;;;;;5069391;28;20436;-73
2022/07/04 03:57:17;;;;;;;1.00;0.90;;;22.50;57.20;;;;;;5060180;28;20049;-75
2022/07/04 03:59:44;;;;;;;2.67;0.80;;;22.40;57.30;;;;;;5049087;28;20053;-73
2022/07/04 04:02:11;;;;;;;2.53;1.00;;;22.50;57.30;;;;;;5063602;28;20135;-73
2022/07/04 04:07:21;;;;;;;1.00;0.90;;;22.40;57.10;;;;;;5069165;28;20056;-73
2022/07/04 04:09:49;;;;;;;3.45;0.90;;;22.40;57.20;;;;;;5068589;28;20051;-74
2022/07/04 04:12:16;;;;;;;1.15;1.00;;;22.40;57.20;;;;;;5068069;28;20508;-73
2022/07/04 04:14:43;;;;;;;1.30;0.90;;;22.40;57.30;;;;;;5068476;28;20056;-73
2022/07/04 04:17:09;;;;;;;1.10;1.00;;;22.40;57.20;;;;;;5059003;28;20056;-72
2022/07/04 04:19:36;;;;;;;1.77;1.13;;;22.40;57.20;;;;;;5058399;28;20052;-74
2022/07/04 04:22:04;;;;;;;1.00;0.90;;;22.40;57.30;;;;;;5057567;28;20083;-72
2022/07/04 04:24:30;;;;;;;1.33;1.00;;;22.40;57.30;;;;;;5057425;28;20085;-73
2022/07/04 04:26:59;;;;;;;1.10;1.00;;;22.30;57.30;;;;;;5057767;28;20057;-74
2022/07/04 04:29:26;;;;;;;1.73;1.00;;;22.30;57.30;;;;;;5057283;28;20143;-74
2022/07/04 04:31:52;;;;;;;1.23;1.08;;;22.40;57.30;;;;;;5058351;28;20048;-73
2022/07/04 04:34:19;;;;;;;1.20;1.10;;;22.30;57.20;;;;;;5058512;28;20051;-74
2022/07/04 04:36:46;;;;;;;1.20;1.10;;;22.30;57.10;;;;;;5057781;28;20137;-72
2022/07/04 04:39:13;;;;;;;1.27;1.08;;;22.30;57.10;;;;;;5057920;28;20784;-73
2022/07/04 04:41:40;;;;;;;1.48;1.00;;;22.30;57.10;;;;;;5056397;28;20051;-74
2022/07/04 04:44:08;;;;;;;0.98;0.93;;;22.30;57.20;;;;;;5056210;28;20552;-73
2022/07/04 04:46:35;;;;;;;1.23;1.00;;;22.30;57.20;;;;;;5057554;28;20601;-73
2022/07/04 04:49:02;;;;;;;1.50;1.13;;;22.30;57.20;;;;;;5058414;28;20139;-73
2022/07/04 04:51:28;;;;;;;1.10;1.00;;;22.30;57.20;;;;;;5057784;28;20135;-73
2022/07/04 04:53:55;;;;;;;3.25;1.10;;;22.30;57.20;;;;;;5057536;28;20465;-73
2022/07/04 04:56:22;;;;;;;1.63;1.27;;;22.30;57.30;;;;;;5054832;28;20044;-73
2022/07/04 04:58:48;;;;;;;1.10;1.00;;;22.30;57.30;;;;;;5048067;28;20333;-73
2022/07/04 05:01:16;;;;;;;0.90;0.90;;;22.30;57.50;;;;;;5053454;28;20059;-73
2022/07/04 05:03:43;;;;;;;2.03;1.17;;;22.30;57.40;;;;;;5067761;28;20135;-72
2022/07/04 05:06:10;;;;;;;1.92;1.10;;;22.30;57.40;;;;;;5067762;28;20056;-73
2022/07/04 05:08:36;;;;;;;2.10;1.20;;;22.30;57.30;;;;;;5067983;28;20058;-74
2022/07/04 05:11:03;;;;;;;1.55;1.00;;;22.30;57.30;;;;;;5050318;28;20048;-73
2022/07/04 05:13:30;;;;;;;1.83;1.20;;;22.30;57.30;;;;;;5067694;28;20135;-72
2022/07/04 05:15:58;;;;;;;1.65;1.02;;;22.40;57.30;;;;;;5067828;28;20058;-73
2022/07/04 05:18:27;;;;;;;1.02;0.93;;;22.30;57.30;;;;;;5067546;28;20052;-73
2022/07/04 05:20:54;;;;;;;3.30;1.08;;;22.30;57.40;;;;;;5068785;28;20052;-73
2022/07/04 05:23:21;;;;;;;2.58;1.20;;;22.40;57.40;;;;;;5067653;28;20192;-73
2022/07/04 05:25:48;;;;;;;3.28;1.10;;;22.30;57.30;;;;;;5065467;28;20044;-73
2022/07/04 05:28:15;;;;;;;1.58;1.20;;;22.30;57.30;;;;;;5067211;28;20055;-73
2022/07/04 05:30:42;;;;;;;1.08;0.98;;;22.30;57.40;;;;;;5067415;28;20055;-74
2022/07/04 05:33:09;;;;;;;1.42;1.00;;;22.30;57.40;;;;;;5066673;28;20045;-75
2022/07/04 05:35:37;;;;;;;1.20;1.00;;;22.30;57.40;;;;;;5057134;28;20736;-74
2022/07/04 05:38:04;;;;;;;1.70;1.20;;;22.30;57.40;;;;;;5067586;28;20072;-76
2022/07/04 05:40:30;;;;;;;1.50;0.93;;;22.30;57.50;;;;;;5067670;28;20080;-75
2022/07/04 05:42:57;;;;;;;1.40;1.27;;;22.40;57.60;;;;;;5067400;28;20128;-73
2022/07/04 05:45:24;;;;;;;1.20;1.00;;;22.40;57.70;;;;;;5051060;28;20056;-74
2022/07/04 05:47:51;;;;;;;3.15;1.10;;;22.40;57.80;;;;;;5067653;28;20058;-73
2022/07/04 05:50:18;;;;;;;2.40;1.17;;;22.50;57.60;;;;;;5067515;28;20665;-73
2022/07/04 05:52:46;;;;;;;2.05;1.30;;;22.60;57.50;;;;;;5067172;28;20110;-74
2022/07/04 05:55:13;;;;;;;2.10;1.30;;;22.70;57.30;;;;;;5064836;28;20087;-74
2022/07/04 05:57:40;;;;;;;2.78;1.52;;;22.80;57.10;;;;;;5035007;28;20072;-73
2022/07/04 06:00:07;;;;;;;3.15;1.50;;;23.00;57.00;;;;;;5051563;28;20051;-73
2022/07/04 06:02:34;;;;;;;3.42;1.40;;;23.10;56.70;;;;;;5067926;28;20736;-72
2022/07/04 06:05:01;;;;;;;2.70;1.65;;;23.20;56.50;;;;;;5071230;28;20056;-73
2022/07/04 06:07:28;;;;;;;2.40;1.63;;;23.30;56.30;;;;;;5070551;28;20128;-73
2022/07/04 06:09:57;;;;;;;2.63;1.40;;;23.30;56.10;;;;;;5070563;28;20066;-73
2022/07/04 06:12:23;;;;;;;3.50;1.60;;;23.50;56.00;;;;;;5052744;28;20053;-73
2022/07/04 06:14:50;;;;;;;4.45;1.60;;;23.60;55.80;;;;;;5051141;28;20135;-73
2022/07/04 06:17:21;;;;;;;2.13;1.30;;;23.70;55.70;;;;;;5051083;28;20414;-73
2022/07/04 06:19:47;;;;;;;2.75;1.63;;;23.80;55.50;;;;;;5050981;28;20053;-73
2022/07/04 06:22:14;;;;;;;4.05;1.60;;;23.90;55.20;;;;;;5052111;28;20136;-73
2022/07/04 06:24:41;;;;;;;2.65;1.30;;;24.00;55.00;;;;;;5054727;28;20048;-73
2022/07/04 06:27:09;;;;;;;2.13;1.23;;;24.10;54.90;;;;;;5070721;28;20131;-73
2022/07/04 06:29:35;;;;;;;1.58;1.20;;;24.30;54.80;;;;;;5061785;28;20521;-73
2022/07/04 06:32:03;;;;;;;1.83;1.20;;;24.30;54.70;;;;;;5055650;28;20044;-73
2022/07/04 06:37:10;;;;;;;1.95;1.20;;;24.50;54.50;;;;;;5027066;28;20139;-73
2022/07/04 06:39:37;;;;;;;1.98;1.20;;;24.60;54.30;;;;;;5070209;28;20569;-74
2022/07/04 06:42:04;;;;;;;1.92;1.20;;;24.60;54.20;;;;;;5070611;28;20059;-74
2022/07/04 06:44:32;;;;;;;1.95;1.10;;;24.80;54.20;;;;;;5069798;28;20079;-73
2022/07/04 06:46:59;;;;;;;1.58;1.10;;;24.90;54.10;;;;;;5070408;28;20056;-74
2022/07/04 06:49:26;;;;;;;2.65;1.40;;;25.00;54.00;;;;;;5071650;28;20104;-74
2022/07/04 06:51:52;;;;;;;4.07;1.20;;;25.10;53.90;;;;;;5070518;28;20047;-74
2022/07/04 06:54:19;;;;;;;2.00;1.02;;;25.20;53.80;;;;;;5066606;28;20072;-74
2022/07/04 06:56:46;;;;;;;1.48;1.20;;;25.20;53.70;;;;;;5069630;28;20052;-74
2022/07/04 06:59:12;;;;;;;1.75;1.10;;;25.30;53.60;;;;;;5070497;28;20169;-74
2022/07/04 07:01:40;;;;;;;0.93;0.82;;;25.50;53.50;;;;;;5069840;28;20048;-74
2022/07/04 07:04:08;;;;;;;1.50;1.10;;;25.50;53.40;;;;;;5064482;28;20068;-74
2022/07/04 07:06:35;;;;;;;1.65;1.10;;;25.50;53.20;;;;;;5048911;28;20717;-74
2022/07/04 07:09:01;;;;;;;2.38;1.05;;;25.60;53.20;;;;;;5059377;28;20083;-74
2022/07/04 07:11:28;;;;;;;2.25;1.00;;;25.70;53.20;;;;;;5051709;28;20136;-74
2022/07/04 07:13:55;;;;;;;1.00;0.90;;;25.70;53.10;;;;;;5049820;28;20055;-73
2022/07/04 07:16:22;;;;;;;1.90;1.15;;;25.70;53.10;;;;;;5050289;28;20560;-74
2022/07/04 07:18:50;;;;;;;1.90;1.27;;;25.80;53.10;;;;;;5049794;28;20128;-74
2022/07/04 07:21:17;;;;;;;2.50;1.48;;;25.80;52.90;;;;;;5049727;28;20560;-74
2022/07/04 07:23:43;;;;;;;1.05;0.90;;;25.90;52.90;;;;;;5049363;28;20049;-74
2022/07/04 07:26:11;;;;;;;1.65;0.88;;;25.90;52.80;;;;;;5064871;28;20075;-74
2022/07/04 07:28:38;;;;;;;0.82;0.80;;;26.00;52.70;;;;;;5069491;28;20056;-73
2022/07/04 07:31:05;;;;;;;1.63;1.10;;;26.10;52.60;;;;;;5070022;28;20133;-73
2022/07/04 07:33:31;;;;;;;1.70;1.10;;;26.10;52.50;;;;;;5053147;28;20053;-73
2022/07/04 07:35:59;;;;;;;2.00;1.17;;;26.20;52.40;;;;;;5049758;28;20509;-73
2022/07/04 07:38:26;;;;;;;1.60;1.15;;;26.20;52.30;;;;;;5050048;28;20065;-73
2022/07/04 07:40:53;;;;;;;1.48;1.00;;;26.30;52.30;;;;;;5049632;28;20140;-73
2022/07/04 07:43:19;;;;;;;1.63;0.98;;;26.40;52.20;;;;;;5049452;28;20057;-74
2022/07/04 07:45:46;;;;;;;1.45;1.02;;;26.40;52.10;;;;;;5049615;28;20052;-75
2022/07/04 07:48:13;;;;;;;1.95;1.00;;;26.40;51.90;;;;;;5059419;28;20139;-73
2022/07/04 07:50:39;;;;;;;1.33;1.00;;;26.50;51.90;;;;;;5069504;28;20135;-74
2022/07/04 07:53:08;;;;;;;1.75;1.10;;;26.50;51.80;;;;;;5069041;28;20151;-73
2022/07/04 07:55:34;;;;;;;7.93;2.08;;;26.50;51.80;;;;;;5064499;28;20056;-73
2022/07/04 07:58:02;;;;;;;5.82;1.58;;;26.50;51.90;;;;;;5069461;28;20076;-74
2022/07/04 08:00:28;;;;;;;4.95;1.55;;;26.50;52.00;;;;;;5069044;28;20535;-73
2022/07/04 08:05:39;;;;;;;2.40;1.20;;;26.50;52.40;;;;;;5049529;28;20052;-73
2022/07/04 08:08:09;;;;;;;5.35;1.80;;;26.50;52.50;;;;;;5049987;28;20060;-73
2022/07/04 08:10:36;;;;;;;3.83;1.55;;;26.50;52.50;;;;;;5049932;28;20057;-74
2022/07/04 08:13:03;;;;;;;6.25;1.58;;;26.40;52.50;;;;;;5057111;28;20056;-74
2022/07/04 08:15:30;;;;;;;6.00;1.45;;;26.40;52.60;;;;;;5068799;28;20102;-74
2022/07/04 08:17:57;;;;;;;4.70;1.40;;;26.40;52.70;;;;;;5068541;28;20048;-74
2022/07/04 08:20:24;;;;;;;5.82;1.60;;;26.30;52.60;;;;;;5068776;28;20308;-74
2022/07/04 08:22:50;;;;;;;4.30;1.40;;;26.40;52.80;;;;;;5067479;28;20083;-74
2022/07/04 08:25:18;;;;;;;5.30;1.35;;;26.30;52.70;;;;;;5068621;28;20131;-74
2022/07/04 08:27:45;;;;;;;4.60;1.55;;;26.30;52.80;;;;;;5070028;28;20128;-74
2022/07/04 08:30:12;;;;;;;5.00;1.30;;;26.30;52.80;;;;;;5068518;28;20469;-73
2022/07/04 08:32:39;;;;;;;3.05;1.27;;;26.30;52.80;;;;;;5068521;28;20147;-75
2022/07/04 08:35:07;;;;;;;3.88;1.45;;;26.20;52.80;;;;;;5067926;28;20060;-75
2022/07/04 08:37:33;;;;;;;5.18;1.40;;;26.20;52.90;;;;;;5063622;28;20058;-74
2022/07/04 08:40:02;;;;;;;5.90;1.25;;;26.10;52.90;;;;;;5052356;28;20512;-73
2022/07/04 08:42:32;;;;;;;11.10;2.38;;;26.00;53.00;;;;;;5048521;28;20474;-74
2022/07/04 08:44:59;;;;;;;29.60;5.03;;;26.00;53.10;;;;;;5048221;28;20053;-74
2022/07/04 08:47:26;;;;;;;19.90;4.00;;;25.90;53.10;;;;;;5052281;28;20478;-74
2022/07/04 08:49:55;;;;;;;16.15;3.88;;;25.90;53.20;;;;;;5068225;28;20140;-74
2022/07/04 08:52:27;;;;;;;11.68;3.33;;;25.80;53.30;;;;;;5066875;28;20056;-74
2022/07/04 09:00:24;;;;;;;8.88;2.58;;;25.90;53.40;;;;;;5068063;28;20056;-73
2022/07/04 09:02:51;;;;;;;12.63;2.08;;;25.80;53.20;;;;;;5067140;28;20044;-73
2022/07/04 09:05:18;;;;;;;7.07;2.05;;;25.90;53.20;;;;;;5068166;28;20131;-73
2022/07/04 09:07:45;;;;;;;5.93;1.90;;;25.80;53.20;;;;;;5062044;28;20124;-73
2022/07/04 09:10:11;;;;;;;7.53;2.10;;;25.90;53.40;;;;;;5047622;28;20132;-73
2022/07/04 09:12:39;;;;;;;5.75;1.77;;;25.80;53.50;;;;;;5047490;28;20049;-73
2022/07/04 09:15:07;;;;;;;8.18;2.10;;;25.90;53.70;;;;;;5047728;28;20051;-73
2022/07/04 09:17:35;;;;;;;6.38;1.98;;;25.90;53.60;;;;;;5048824;28;20128;-74
2022/07/04 09:20:15;;;;;;;7.75;1.90;;;25.90;53.50;;;;;;5048687;28;20051;-73
2022/07/04 09:22:42;;;;;;;6.60;1.85;;;25.90;53.50;;;;;;5059506;28;20048;-73
2022/07/04 09:25:12;;;;;;;5.90;1.63;;;25.90;53.60;;;;;;5067635;28;20062;-74
2022/07/04 09:27:41;;;;;;;4.47;1.88;;;25.90;53.50;;;;;;5067906;28;20091;-73
2022/07/04 09:30:09;;;;;;;5.32;2.20;;;25.90;53.40;;;;;;5068313;28;20056;-73
2022/07/04 09:32:40;;;;;;;7.35;1.98;;;25.80;53.40;;;;;;5067064;28;20052;-73
2022/07/04 09:35:08;;;;;;;5.28;2.40;;;25.40;53.00;;;;;;5067377;28;20162;-73
2022/07/04 09:37:36;;;;;;;7.53;2.00;;;25.80;53.40;;;;;;5065418;28;20062;-73
2022/07/04 09:40:05;;;;;;;6.28;2.28;;;25.80;53.40;;;;;;5067684;28;20057;-73
2022/07/04 09:42:40;;;;;;;7.32;2.20;;;25.80;53.40;;;;;;5067230;28;20048;-73
2022/07/04 09:45:08;;;;;;;5.03;2.00;;;25.60;53.20;;;;;;5066976;28;20055;-73
2022/07/04 09:47:36;;;;;;;6.38;2.10;;;25.70;53.40;;;;;;5067313;28;20083;-73
2022/07/04 09:50:03;;;;;;;5.95;2.33;;;25.70;53.40;;;;;;5067332;28;20052;-73
2022/07/04 09:52:31;;;;;;;5.35;2.00;;;25.70;53.40;;;;;;5057703;28;20472;-73
2022/07/04 09:54:58;;;;;;;4.75;1.85;;;25.70;53.40;;;;;;5056761;28;20079;-73
2022/07/04 09:57:26;;;;;;;7.03;2.10;;;25.60;53.40;;;;;;5057937;28;20421;-73
2022/07/04 09:59:54;;;;;;;4.90;1.67;;;25.60;53.40;;;;;;5063833;28;20055;-74
2022/07/04 10:02:20;;;;;;;3.33;1.77;;;25.60;53.40;;;;;;5065431;28;20057;-73
2022/07/04 10:04:48;;;;;;;4.63;1.58;;;25.50;53.50;;;;;;5066386;28;20055;-73
2022/07/04 10:07:33;;;;;;;3.55;1.63;;;25.50;53.50;;;;;;5065601;28;20135;-73
2022/07/04 10:10:00;;;;;;;2.33;1.40;;;25.50;53.40;;;;;;5066457;28;20080;-74
2022/07/04 10:12:27;;;;;;;3.72;1.75;;;25.40;53.50;;;;;;5067878;28;20416;-74
2022/07/04 10:14:56;;;;;;;3.63;1.42;;;25.30;53.50;;;;;;5067431;28;20640;-73
2022/07/04 10:17:23;;;;;;;3.17;1.77;;;25.30;53.40;;;;;;5066072;28;20131;-74
2022/07/04 10:19:51;;;;;;;2.97;1.40;;;25.30;53.40;;;;;;5067238;28;20056;-74
2022/07/04 10:22:19;;;;;;;5.97;1.77;;;25.30;53.60;;;;;;5049263;28;20465;-73
2022/07/04 10:24:45;;;;;;;3.95;1.80;;;25.20;53.50;;;;;;5066745;28;20053;-74
2022/07/04 10:27:12;;;;;;;4.25;1.60;;;25.20;53.50;;;;;;5063769;28;20048;-74
2022/07/04 10:29:39;;;;;;;3.15;1.40;;;25.30;54.20;;;;;;5056066;28;20083;-74
2022/07/04 10:32:08;;;;;;;3.95;1.40;;;25.30;54.10;;;;;;5057310;28;20063;-73
2022/07/04 10:34:40;;;;;;;1.83;1.13;;;25.30;53.40;;;;;;5055371;28;20048;-73
2022/07/04 10:37:07;;;;;;;4.43;1.60;;;25.30;53.40;;;;;;5067343;28;20074;-74
2022/07/04 10:39:34;;;;;;;4.88;1.42;;;25.30;53.30;;;;;;5050901;28;20059;-73
2022/07/04 10:42:01;;;;;;;3.17;1.30;;;25.40;53.20;;;;;;5053354;28;20490;-74
2022/07/04 10:44:36;;;;;;;3.35;1.42;;;25.30;53.00;;;;;;5071152;28;20123;-73
2022/07/04 10:47:03;;;;;;;6.03;1.40;;;25.30;52.90;;;;;;5070821;28;20505;-74
2022/07/04 10:49:31;;;;;;;3.90;1.60;;;25.30;52.80;;;;;;5070707;28;20157;-73
2022/07/04 10:52:09;;;;;;;3.78;1.45;;;25.30;52.50;;;;;;5070843;28;20060;-73
2022/07/04 10:54:38;;;;;;;2.63;1.33;;;25.30;52.20;;;;;;5070026;28;20044;-73
2022/07/04 10:57:15;;;;;;;3.65;1.40;;;25.30;52.40;;;;;;5069496;28;20064;-73
2022/07/04 10:59:42;;;;;;;2.72;1.30;;;25.30;52.50;;;;;;5071833;28;20045;-73
2022/07/04 11:02:28;;;;;;;2.85;1.30;;;25.30;52.60;;;;;;5069557;28;20520;-73
2022/07/04 11:05:01;;;;;;;2.35;1.30;;;25.20;52.60;;;;;;5070336;28;20413;-73
2022/07/04 11:07:59;;;;;;;2.35;1.20;;;25.30;52.70;;;;;;5070253;28;20056;-73
2022/07/04 11:10:26;;;;;;;4.25;1.15;;;25.30;52.80;;;;;;5069630;28;20091;-73
2022/07/04 11:13:20;;;;;;;2.45;1.40;;;25.30;52.90;;;;;;5058907;28;20053;-73
2022/07/04 11:16:06;;;;;;;1.90;1.08;;;25.30;53.00;;;;;;5050271;28;20071;-72
2022/07/04 11:18:43;;;;;;;3.63;1.52;;;25.20;53.10;;;;;;5054036;28;20052;-72
2022/07/04 11:21:24;;;;;;;3.55;1.40;;;25.20;53.20;;;;;;5060268;28;20098;-72
2022/07/04 11:23:53;;;;;;;2.97;1.30;;;25.20;53.20;;;;;;5058855;28;20036;-72
2022/07/04 11:26:21;;;;;;;2.40;1.40;;;25.20;53.30;;;;;;5061531;28;20524;-72
2022/07/04 11:28:47;;;;;;;2.53;1.20;;;25.20;53.20;;;;;;5059216;28;20059;-72
2022/07/04 11:31:14;;;;;;;4.32;1.30;;;25.20;53.30;;;;;;5049645;28;20056;-72
2022/07/04 11:33:41;;;;;;;3.38;1.52;;;25.20;53.30;;;;;;5049300;28;20128;-72
2022/07/04 11:36:09;;;;;;;3.25;1.30;;;25.20;53.30;;;;;;5061759;28;20059;-72
2022/07/04 11:38:56;;;;;;;2.47;1.33;;;25.20;53.20;;;;;;5058340;28;20048;-73
2022/07/04 11:47:06;;;;;;;2.10;1.20;;;25.20;53.20;;;;;;5049508;28;20689;-75
2022/07/04 11:49:32;;;;;;;1.42;1.10;;;25.20;53.10;;;;;;5049175;28;20218;-75
2022/07/04 11:51:59;;;;;;;2.15;1.30;;;25.20;53.20;;;;;;5049634;28;20128;-75
2022/07/04 11:54:27;;;;;;;2.38;1.17;;;25.20;53.90;;;;;;5048078;28;20464;-76
2022/07/04 11:57:08;;;;;;;1.77;1.10;;;25.10;53.40;;;;;;5050012;28;20052;-76
2022/07/04 11:59:35;;;;;;;3.35;1.20;;;25.20;53.50;;;;;;5057919;28;20125;-75
2022/07/04 12:02:11;;;;;;;2.40;1.10;;;25.10;53.50;;;;;;5055151;28;20062;-73
2022/07/04 12:04:41;;;;;;;2.65;1.40;;;25.20;53.40;;;;;;5059614;28;20186;-74
2022/07/04 12:07:09;;;;;;;1.73;1.10;;;25.10;53.40;;;;;;5051506;28;20502;-74
2022/07/04 12:09:37;;;;;;;2.20;1.20;;;25.10;53.40;;;;;;5054387;28;20048;-74
2022/07/04 12:12:05;;;;;;;1.52;1.10;;;25.10;53.30;;;;;;5046204;28;20059;-73
2022/07/04 12:14:32;;;;;;;1.92;1.13;;;25.10;53.30;;;;;;5052962;28;20486;-74
2022/07/04 12:17:18;;;;;;;3.20;1.30;;;25.00;53.20;;;;;;5056278;28;20063;-74
2022/07/04 12:19:52;;;;;;;1.70;1.10;;;25.00;53.40;;;;;;5057429;28;20052;-74
2022/07/04 12:22:30;;;;;;;1.30;1.10;;;25.00;53.50;;;;;;5055524;28;20414;-74
2022/07/04 12:24:58;;;;;;;2.63;1.20;;;24.80;53.50;;;;;;5048167;28;20398;-74
2022/07/04 12:27:25;;;;;;;5.50;1.20;;;24.90;53.60;;;;;;5048796;28;20092;-74
2022/07/04 12:29:53;;;;;;;2.08;1.30;;;24.90;53.70;;;;;;5047909;28;20057;-74
2022/07/04 12:32:19;;;;;;;2.40;1.30;;;24.80;53.80;;;;;;5047156;28;20738;-73
2022/07/04 12:34:46;;;;;;;3.70;1.30;;;24.80;53.90;;;;;;5047537;28;20053;-73
2022/07/04 12:37:14;;;;;;;3.00;1.30;;;24.80;53.90;;;;;;5047524;28;20784;-75
2022/07/04 12:39:43;;;;;;;3.38;1.38;;;24.80;53.90;;;;;;5047340;28;20413;-73
2022/07/04 12:42:12;;;;;;;2.13;1.33;;;24.90;54.10;;;;;;5047443;28;20057;-74
2022/07/04 12:44:39;;;;;;;2.20;1.13;;;24.90;54.00;;;;;;5047617;28;20645;-76
2022/07/04 12:47:06;;;;;;;5.22;1.30;;;24.90;53.70;;;;;;5057332;28;20052;-74
2022/07/04 12:49:33;;;;;;;3.20;1.10;;;24.80;53.70;;;;;;5067753;28;20137;-74
2022/07/04 12:52:07;;;;;;;1.98;1.02;;;24.80;53.40;;;;;;5066874;28;20122;-74
2022/07/04 12:54:34;;;;;;;3.30;1.20;;;24.80;53.40;;;;;;5066574;28;20131;-74
2022/07/04 12:57:08;;;;;;;1.40;1.15;;;24.70;53.50;;;;;;5066324;28;20150;-74
2022/07/04 12:59:36;;;;;;;3.40;1.20;;;24.80;53.60;;;;;;5067110;28;20106;-74
2022/07/04 13:02:03;;;;;;;1.88;1.13;;;24.80;53.70;;;;;;5066478;28;20460;-74
2022/07/04 13:04:32;;;;;;;5.65;1.30;;;24.80;53.80;;;;;;5067641;28;20564;-74
2022/07/04 13:07:00;;;;;;;3.15;1.10;;;24.80;53.90;;;;;;5066864;28;20570;-74
2022/07/04 13:09:27;;;;;;;3.35;1.20;;;24.80;53.90;;;;;;5067815;28;20157;-74
2022/07/04 13:14:39;;;;;;;1.30;1.20;;;24.80;53.80;;;;;;5067454;28;20049;-74
2022/07/04 13:17:05;;;;;;;2.75;1.13;;;24.70;53.80;;;;;;5067966;28;20702;-74